createdAt,value
2023-03-29T00:01:36.126Z,7.20
2023-03-29T00:03:49.192Z,7.20
2023-03-29T00:06:16.738Z,7.20
2023-03-29T00:08:44.272Z,7.20
2023-03-29T00:11:11.796Z,7.10
2023-03-29T00:13:39.430Z,7.10
2023-03-29T00:16:06.991Z,7.10
2023-03-29T00:18:34.510Z,7.10
2023-03-29T00:21:02.576Z,7.10
2023-03-29T00:23:29.914Z,7.10
2023-03-29T00:25:57.462Z,7.00
2023-03-29T00:28:25.743Z,7.00
2023-03-29T00:30:53.337Z,7.20
2023-03-29T00:33:20.813Z,7.50
2023-03-29T00:35:48.544Z,7.40
2023-03-29T00:38:15.997Z,7.40
2023-03-29T00:40:43.514Z,7.30
2023-03-29T00:43:11.352Z,7.20
2023-03-29T00:45:38.888Z,7.20
2023-03-29T00:48:18.011Z,7.10
2023-03-29T00:50:51.148Z,7.10
2023-03-29T00:53:24.393Z,7.10
2023-03-29T00:55:54.408Z,7.00
2023-03-29T00:58:21.936Z,7.00
2023-03-29T01:00:49.777Z,7.00
2023-03-29T01:03:17.392Z,7.00
2023-03-29T01:05:44.869Z,7.20
2023-03-29T01:08:12.913Z,7.20
2023-03-29T01:10:43.315Z,7.10
2023-03-29T01:13:13.793Z,7.10
2023-03-29T01:15:41.395Z,7.00
2023-03-29T01:18:09.022Z,7.00
2023-03-29T01:21:09.418Z,7.00
2023-03-29T01:23:36.950Z,6.90
2023-03-29T01:26:22.390Z,6.90
2023-03-29T01:28:52.859Z,7.10
2023-03-29T01:31:20.428Z,7.10
2023-03-29T01:33:47.969Z,7.10
2023-03-29T01:36:33.797Z,7.10
2023-03-29T01:39:01.342Z,7.10
2023-03-29T01:41:28.916Z,7.10
2023-03-29T01:44:11.081Z,7.10
2023-03-29T01:46:47.292Z,7.00
2023-03-29T01:49:20.577Z,7.10
2023-03-29T01:51:53.765Z,7.00
2023-03-29T01:54:21.301Z,7.00
2023-03-29T01:56:48.952Z,7.00
2023-03-29T01:59:16.457Z,7.00
2023-03-29T02:01:49.484Z,7.00
2023-03-29T02:04:19.381Z,7.00
2023-03-29T02:06:46.914Z,7.00
2023-03-29T02:09:14.465Z,7.00
2023-03-29T02:11:42.076Z,7.00
2023-03-29T02:14:09.607Z,7.00
2023-03-29T02:16:39.790Z,7.00
2023-03-29T02:19:08.141Z,7.00
2023-03-29T02:21:53.455Z,7.00
2023-03-29T02:24:21.001Z,7.00
2023-03-29T02:26:48.534Z,7.00
2023-03-29T02:29:16.065Z,7.00
2023-03-29T02:31:44.454Z,7.00
2023-03-29T02:34:17.839Z,7.00
2023-03-29T02:36:48.039Z,7.00
2023-03-29T02:39:15.887Z,7.00
2023-03-29T02:41:43.425Z,7.00
2023-03-29T02:44:13.699Z,7.00
2023-03-29T02:46:41.306Z,7.00
2023-03-29T02:49:08.808Z,7.20
2023-03-29T02:51:36.361Z,7.30
2023-03-29T02:54:03.960Z,7.30
2023-03-29T02:56:31.513Z,7.20
2023-03-29T02:58:59.026Z,7.20
2023-03-29T03:01:26.683Z,7.20
2023-03-29T03:03:54.260Z,7.20
2023-03-29T03:06:21.650Z,7.20
2023-03-29T03:08:49.236Z,7.20
2023-03-29T03:11:16.782Z,7.20
2023-03-29T03:13:44.304Z,7.10
2023-03-29T03:16:11.970Z,7.20
2023-03-29T03:18:39.455Z,7.20
2023-03-29T03:21:06.984Z,7.20
2023-03-29T03:23:34.547Z,7.20
2023-03-29T03:26:02.093Z,7.20
2023-03-29T03:28:29.618Z,7.20
2023-03-29T03:30:57.211Z,7.20
2023-03-29T03:33:24.725Z,7.20
2023-03-29T03:35:52.311Z,7.20
2023-03-29T03:38:19.864Z,7.20
2023-03-29T03:40:47.399Z,7.20
2023-03-29T03:43:14.936Z,7.40
2023-03-29T03:45:42.523Z,7.40
2023-03-29T03:48:10.068Z,7.40
2023-03-29T03:50:37.607Z,7.40
2023-03-29T03:53:05.155Z,7.40
2023-03-29T03:55:32.684Z,7.40
2023-03-29T03:58:00.231Z,7.30
2023-03-29T04:00:27.791Z,7.30
2023-03-29T04:02:55.454Z,7.30
2023-03-29T04:05:22.872Z,7.60
2023-03-29T04:07:50.447Z,7.60
2023-03-29T04:10:17.970Z,7.60
2023-03-29T04:12:45.523Z,7.60
2023-03-29T04:15:13.082Z,7.50
2023-03-29T04:17:40.707Z,7.70
2023-03-29T04:20:08.138Z,7.70
2023-03-29T04:22:35.732Z,7.70
2023-03-29T04:25:03.286Z,7.70
2023-03-29T04:27:30.796Z,7.80
2023-03-29T04:29:58.371Z,7.80
2023-03-29T04:32:25.949Z,8.00
2023-03-29T04:34:53.443Z,7.90
2023-03-29T04:37:22.450Z,7.80
2023-03-29T04:39:49.967Z,7.70
2023-03-29T04:42:17.494Z,7.70
2023-03-29T04:44:45.139Z,7.60
2023-03-29T04:47:12.638Z,7.60
2023-03-29T04:49:40.177Z,7.60
2023-03-29T04:52:07.738Z,7.60
2023-03-29T04:54:35.265Z,7.60
2023-03-29T04:57:02.847Z,7.60
2023-03-29T04:59:30.379Z,7.60
2023-03-29T05:01:57.957Z,7.50
2023-03-29T05:04:25.474Z,7.50
2023-03-29T05:06:53.357Z,7.50
2023-03-29T05:09:20.905Z,7.50
2023-03-29T05:11:48.458Z,7.50
2023-03-29T05:14:16.090Z,7.50
2023-03-29T05:16:43.679Z,7.60
2023-03-29T05:19:11.158Z,7.60
2023-03-29T05:21:38.721Z,7.60
2023-03-29T05:24:06.255Z,7.60
2023-03-29T05:26:33.804Z,7.60
2023-03-29T05:29:01.394Z,7.60
2023-03-29T05:31:28.924Z,7.70
2023-03-29T05:33:56.419Z,7.70
2023-03-29T05:36:24.030Z,7.70
2023-03-29T05:38:51.524Z,7.70
2023-03-29T05:41:19.046Z,7.70
2023-03-29T05:43:46.728Z,7.70
2023-03-29T05:46:14.269Z,7.70
2023-03-29T05:48:41.789Z,7.70
2023-03-29T05:51:09.356Z,7.60
2023-03-29T05:53:36.888Z,7.90
2023-03-29T05:56:04.435Z,7.90
2023-03-29T05:58:32.023Z,7.90
2023-03-29T06:00:59.549Z,7.90
2023-03-29T06:03:27.283Z,7.90
2023-03-29T06:05:57.810Z,7.90
2023-03-29T06:08:25.368Z,7.90
2023-03-29T06:10:52.892Z,7.90
2023-03-29T06:13:20.458Z,7.90
2023-03-29T06:15:47.974Z,8.20
2023-03-29T06:18:15.509Z,8.20
2023-03-29T06:20:43.101Z,8.20
2023-03-29T06:23:10.618Z,8.10
2023-03-29T06:25:38.211Z,8.20
2023-03-29T06:28:05.794Z,8.10
2023-03-29T06:30:33.331Z,8.40
2023-03-29T06:33:00.938Z,8.40
2023-03-29T06:35:28.469Z,8.40
2023-03-29T06:37:55.967Z,8.40
2023-03-29T06:40:23.588Z,8.30
2023-03-29T06:42:51.118Z,8.30
2023-03-29T06:45:19.668Z,8.30
2023-03-29T06:47:46.345Z,8.60
2023-03-29T06:50:13.760Z,8.60
2023-03-29T06:52:41.279Z,8.60
2023-03-29T06:55:08.818Z,8.60
2023-03-29T06:57:37.347Z,8.80
2023-03-29T07:00:03.907Z,8.80
2023-03-29T07:02:31.468Z,8.80
2023-03-29T07:04:59.016Z,8.80
2023-03-29T07:07:26.590Z,8.80
2023-03-29T07:09:54.311Z,8.80
2023-03-29T07:12:24.452Z,9.10
2023-03-29T07:14:51.996Z,9.10
2023-03-29T07:17:19.502Z,9.10
2023-03-29T07:19:47.791Z,9.10
2023-03-29T07:22:15.316Z,9.10
2023-03-29T07:24:42.831Z,9.10
2023-03-29T07:27:10.403Z,9.10
2023-03-29T07:29:37.934Z,9.30
2023-03-29T07:32:05.454Z,9.30
2023-03-29T07:34:33.029Z,9.30
2023-03-29T07:37:00.563Z,9.30
2023-03-29T07:39:28.107Z,9.30
2023-03-29T07:41:55.670Z,9.30
2023-03-29T07:44:23.200Z,9.30
2023-03-29T07:46:50.729Z,9.40
2023-03-29T07:49:19.811Z,9.40
2023-03-29T07:51:45.895Z,9.50
2023-03-29T07:54:13.404Z,9.50
2023-03-29T07:56:41.728Z,9.60
2023-03-29T07:59:09.214Z,9.70
2023-03-29T08:01:36.740Z,9.70
2023-03-29T08:04:04.459Z,9.80
2023-03-29T08:06:31.840Z,9.90
2023-03-29T08:08:59.380Z,10.00
2023-03-29T08:11:26.964Z,10.10
2023-03-29T08:13:54.485Z,10.30
2023-03-29T08:16:22.076Z,10.40
2023-03-29T08:18:49.662Z,10.50
2023-03-29T08:21:17.151Z,10.50
2023-03-29T08:23:44.702Z,10.80
2023-03-29T08:26:12.278Z,10.90
2023-03-29T08:28:39.870Z,11.00
2023-03-29T08:31:07.466Z,11.00
2023-03-29T08:33:34.970Z,11.10
2023-03-29T08:36:02.517Z,11.20
2023-03-29T08:38:30.018Z,11.20
2023-03-29T08:40:57.833Z,11.30
2023-03-29T08:43:25.361Z,11.40
2023-03-29T08:46:01.683Z,11.40
2023-03-29T08:48:53.026Z,11.50
2023-03-29T08:51:20.636Z,11.60
2023-03-29T08:53:48.189Z,11.70
2023-03-29T08:56:21.392Z,11.70
2023-03-29T08:58:49.234Z,11.80
2023-03-29T09:01:16.869Z,12.10
2023-03-29T09:03:50.188Z,12.20
2023-03-29T09:06:17.709Z,12.20
2023-03-29T09:08:48.133Z,12.30
2023-03-29T09:11:24.779Z,12.50
2023-03-29T09:14:01.182Z,12.60
2023-03-29T09:16:43.657Z,12.50
2023-03-29T09:19:38.082Z,12.50
2023-03-29T09:22:08.138Z,12.50
2023-03-29T09:24:38.639Z,12.40
2023-03-29T09:27:15.119Z,12.40
2023-03-29T09:29:57.490Z,12.50
2023-03-29T09:32:27.765Z,12.50
2023-03-29T09:34:57.739Z,12.60
2023-03-29T09:37:33.799Z,12.70
2023-03-29T09:40:03.148Z,13.10
2023-03-29T09:42:28.863Z,13.20
2023-03-29T09:44:56.410Z,13.20
2023-03-29T09:47:27.110Z,13.30
2023-03-29T09:50:00.574Z,13.30
2023-03-29T09:52:28.121Z,13.30
2023-03-29T09:54:55.667Z,13.40
2023-03-29T09:57:23.331Z,13.40
2023-03-29T09:59:50.831Z,13.60
2023-03-29T10:02:18.383Z,13.90
2023-03-29T10:04:46.213Z,14.00
2023-03-29T10:07:16.431Z,14.10
2023-03-29T10:09:43.999Z,14.10
2023-03-29T10:12:11.533Z,14.20
2023-03-29T10:14:39.065Z,14.30
2023-03-29T10:17:06.601Z,14.40
2023-03-29T10:19:34.193Z,14.70
2023-03-29T10:22:01.737Z,14.80
2023-03-29T10:24:29.268Z,14.80
2023-03-29T10:27:02.689Z,14.80
2023-03-29T10:29:30.219Z,14.80
2023-03-29T10:31:57.803Z,14.90
2023-03-29T10:34:25.326Z,15.00
2023-03-29T10:36:52.860Z,15.10
2023-03-29T10:39:20.438Z,15.30
2023-03-29T10:41:47.961Z,15.40
2023-03-29T10:44:24.561Z,15.60
2023-03-29T10:46:52.086Z,15.70
2023-03-29T10:49:19.652Z,15.80
2023-03-29T10:51:47.251Z,15.90
2023-03-29T10:54:14.785Z,15.80
2023-03-29T10:56:42.404Z,16.00
2023-03-29T10:59:24.428Z,16.10
2023-03-29T11:02:16.212Z,16.00
2023-03-29T11:04:49.640Z,16.10
2023-03-29T11:07:28.761Z,16.20
2023-03-29T11:10:17.092Z,16.20
2023-03-29T11:12:50.509Z,16.30
2023-03-29T11:15:33.104Z,16.40
2023-03-29T11:18:03.348Z,16.50
2023-03-29T11:20:42.676Z,16.60
2023-03-29T11:23:22.386Z,16.70
2023-03-29T11:25:49.925Z,16.80
2023-03-29T11:28:22.916Z,16.80
2023-03-29T11:31:05.656Z,16.90
2023-03-29T11:33:38.171Z,16.90
2023-03-29T11:36:14.503Z,16.90
2023-03-29T11:38:51.056Z,17.00
2023-03-29T11:41:27.172Z,17.10
2023-03-29T11:44:00.659Z,17.10
2023-03-29T11:46:30.932Z,17.20
2023-03-29T11:49:07.343Z,17.50
2023-03-29T11:51:46.645Z,17.60
2023-03-29T11:54:26.057Z,17.80
2023-03-29T11:56:59.707Z,17.90
2023-03-29T11:59:29.914Z,17.80
2023-03-29T12:02:12.382Z,17.90
2023-03-29T12:04:39.846Z,17.80
2023-03-29T12:07:12.869Z,17.60
2023-03-29T12:09:46.296Z,17.40
2023-03-29T12:12:28.932Z,17.20
2023-03-29T12:14:59.522Z,17.10
2023-03-29T12:17:32.855Z,17.10
2023-03-29T12:20:00.368Z,17.00
2023-03-29T12:22:27.943Z,16.90
2023-03-29T12:24:55.624Z,16.80
2023-03-29T12:27:23.079Z,16.80
2023-03-29T12:29:53.362Z,16.80
2023-03-29T12:32:27.024Z,16.70
2023-03-29T12:35:12.866Z,16.90
2023-03-29T12:38:01.451Z,16.90
2023-03-29T12:40:29.024Z,16.80
2023-03-29T12:43:08.266Z,16.70
2023-03-29T12:45:39.318Z,16.70
2023-03-29T12:48:06.883Z,16.70
2023-03-29T12:50:37.387Z,16.70
2023-03-29T12:53:22.781Z,16.70
2023-03-29T12:56:05.277Z,16.60
2023-03-29T12:58:56.348Z,16.80
2023-03-29T13:01:29.833Z,16.70
2023-03-29T13:04:00.183Z,16.50
2023-03-29T13:06:33.631Z,16.40
2023-03-29T13:09:22.594Z,16.30
2023-03-29T13:11:52.869Z,16.20
2023-03-29T13:14:20.422Z,16.10
2023-03-29T13:16:48.026Z,16.00
2023-03-29T13:19:24.178Z,16.00
2023-03-29T13:21:51.719Z,15.90
2023-03-29T13:24:24.815Z,15.90
2023-03-29T13:27:19.325Z,16.00
2023-03-29T13:29:49.560Z,16.20
2023-03-29T13:32:47.392Z,16.50
2023-03-29T13:35:32.719Z,16.50
2023-03-29T13:38:23.990Z,16.40
2023-03-29T13:40:54.265Z,16.30
2023-03-29T13:43:21.825Z,16.30
2023-03-29T13:45:57.927Z,16.30
2023-03-29T13:48:28.470Z,16.30
2023-03-29T13:51:10.691Z,16.30
2023-03-29T13:53:47.109Z,16.40
2023-03-29T13:56:17.201Z,16.50
2023-03-29T13:58:50.491Z,16.60
2023-03-29T14:01:23.884Z,16.80
2023-03-29T14:03:51.386Z,16.90
2023-03-29T14:06:19.006Z,16.90
2023-03-29T14:08:46.571Z,17.20
2023-03-29T14:11:17.039Z,17.40
2023-03-29T14:13:44.651Z,17.40
2023-03-29T14:16:12.267Z,17.40
2023-03-29T14:18:39.752Z,17.50
2023-03-29T14:21:07.324Z,17.60
2023-03-29T14:23:34.861Z,17.50
2023-03-29T14:26:17.205Z,17.40
2023-03-29T14:28:47.415Z,17.40
2023-03-29T14:31:17.904Z,17.40
2023-03-29T14:33:45.488Z,17.30
2023-03-29T14:36:13.102Z,17.30
2023-03-29T14:38:40.577Z,17.50
2023-03-29T14:41:08.140Z,17.50
2023-03-29T14:43:35.674Z,17.50
2023-03-29T14:46:03.406Z,17.50
2023-03-29T14:48:30.784Z,17.50
2023-03-29T14:50:58.374Z,17.70
2023-03-29T14:53:25.866Z,17.80
2023-03-29T14:55:53.451Z,18.00
2023-03-29T14:58:23.921Z,18.00
2023-03-29T15:00:51.472Z,18.00
2023-03-29T15:03:19.230Z,18.00
2023-03-29T15:05:55.422Z,18.00
2023-03-29T15:08:37.766Z,18.00
2023-03-29T15:11:16.740Z,18.00
2023-03-29T15:13:44.308Z,17.90
2023-03-29T15:16:12.086Z,18.00
2023-03-29T15:18:39.451Z,18.00
2023-03-29T15:21:09.944Z,17.90
2023-03-29T15:23:58.566Z,17.90
2023-03-29T15:26:26.201Z,17.90
2023-03-29T15:28:56.384Z,17.90
2023-03-29T15:31:29.255Z,17.90
2023-03-29T15:34:02.780Z,17.90
2023-03-29T15:36:30.320Z,18.00
2023-03-29T15:38:57.844Z,18.00
2023-03-29T15:41:25.486Z,18.00
2023-03-29T15:43:52.963Z,18.00
2023-03-29T15:46:20.527Z,18.30
2023-03-29T15:48:48.830Z,18.50
2023-03-29T15:51:16.378Z,18.50
2023-03-29T15:53:43.945Z,18.40
2023-03-29T15:56:11.758Z,18.40
2023-03-29T15:58:39.309Z,18.40
2023-03-29T16:01:28.257Z,18.40
2023-03-29T16:03:55.761Z,18.40
2023-03-29T16:06:23.293Z,18.60
2023-03-29T16:08:50.888Z,18.60
2023-03-29T16:11:18.401Z,18.70
2023-03-29T16:13:46.010Z,18.60
2023-03-29T16:16:13.610Z,18.50
2023-03-29T16:18:41.096Z,18.40
2023-03-29T16:21:12.365Z,18.50
2023-03-29T16:23:38.918Z,18.50
2023-03-29T16:26:06.588Z,18.40
2023-03-29T16:28:33.964Z,18.50
2023-03-29T16:31:01.576Z,18.70
2023-03-29T16:33:29.100Z,18.60
2023-03-29T16:35:56.673Z,18.40
2023-03-29T16:38:24.466Z,18.30
2023-03-29T16:40:52.034Z,18.30
2023-03-29T16:43:19.561Z,18.20
2023-03-29T16:45:47.167Z,18.10
2023-03-29T16:48:14.675Z,18.00
2023-03-29T16:50:42.306Z,18.00
2023-03-29T16:53:09.789Z,17.90
2023-03-29T16:55:37.331Z,17.90
2023-03-29T16:58:04.863Z,17.80
2023-03-29T17:00:32.447Z,17.80
2023-03-29T17:03:02.892Z,17.70
2023-03-29T17:05:30.404Z,17.70
2023-03-29T17:07:58.035Z,17.70
2023-03-29T17:10:25.572Z,17.60
2023-03-29T17:12:53.124Z,17.60
2023-03-29T17:15:20.717Z,17.50
2023-03-29T17:17:48.269Z,17.50
2023-03-29T17:20:15.791Z,17.70
2023-03-29T17:22:43.373Z,17.70
2023-03-29T17:25:10.919Z,17.60
2023-03-29T17:27:38.474Z,17.60
2023-03-29T17:30:06.034Z,17.50
2023-03-29T17:32:33.565Z,17.50
2023-03-29T17:35:01.101Z,17.40
2023-03-29T17:37:28.671Z,17.30
2023-03-29T17:39:56.189Z,17.30
2023-03-29T17:42:23.737Z,17.20
2023-03-29T17:44:51.351Z,17.10
2023-03-29T17:47:18.879Z,17.00
2023-03-29T17:49:46.417Z,16.90
2023-03-29T17:52:14.019Z,16.80
2023-03-29T17:54:41.544Z,16.70
2023-03-29T17:57:09.137Z,16.70
2023-03-29T17:59:36.648Z,16.60
2023-03-29T18:02:04.252Z,16.50
2023-03-29T18:04:31.776Z,16.40
2023-03-29T18:06:59.357Z,16.40
2023-03-29T18:09:29.404Z,16.30
2023-03-29T18:11:54.457Z,16.30
2023-03-29T18:14:22.032Z,16.40
2023-03-29T18:16:49.580Z,16.70
2023-03-29T18:19:17.103Z,16.60
2023-03-29T18:21:44.946Z,16.70
2023-03-29T18:24:12.480Z,16.60
2023-03-29T18:26:40.010Z,16.50
2023-03-29T18:29:09.742Z,16.40
2023-03-29T18:31:35.215Z,16.30
2023-03-29T18:34:02.707Z,16.30
2023-03-29T18:36:30.449Z,16.20
2023-03-29T18:38:57.942Z,16.10
2023-03-29T18:41:25.487Z,16.10
2023-03-29T18:43:53.092Z,16.00
2023-03-29T18:46:20.677Z,16.20
2023-03-29T18:48:48.210Z,16.10
2023-03-29T18:51:15.820Z,16.00
2023-03-29T18:53:43.360Z,15.90
2023-03-29T18:56:10.941Z,15.90
2023-03-29T18:58:38.523Z,15.80
2023-03-29T19:01:06.102Z,15.70
2023-03-29T19:03:33.637Z,15.70
2023-03-29T19:06:01.332Z,15.70
2023-03-29T19:08:28.761Z,15.60
2023-03-29T19:11:01.806Z,15.50
2023-03-29T19:13:29.461Z,15.50
2023-03-29T19:15:57.062Z,15.40
2023-03-29T19:18:24.542Z,15.40
2023-03-29T19:20:52.116Z,15.40
2023-03-29T19:23:19.650Z,15.30
2023-03-29T19:25:53.198Z,15.30
2023-03-29T19:28:20.768Z,15.30
2023-03-29T19:30:48.367Z,15.50
2023-03-29T19:33:15.895Z,15.40
2023-03-29T19:35:43.731Z,15.40
2023-03-29T19:38:11.245Z,15.30
2023-03-29T19:40:38.809Z,15.50
2023-03-29T19:43:06.402Z,15.40
2023-03-29T19:45:33.958Z,15.60
2023-03-29T19:48:03.315Z,15.80
2023-03-29T19:50:29.081Z,15.70
2023-03-29T19:52:56.633Z,15.60
2023-03-29T19:55:24.171Z,15.50
2023-03-29T19:57:51.803Z,15.40
2023-03-29T20:00:19.404Z,15.30
2023-03-29T20:02:46.990Z,15.20
2023-03-29T20:05:14.753Z,15.20
2023-03-29T20:07:42.306Z,15.10
2023-03-29T20:10:09.856Z,15.10
2023-03-29T20:12:37.468Z,15.00
2023-03-29T20:15:05.007Z,15.00
2023-03-29T20:17:32.595Z,14.90
2023-03-29T20:20:00.177Z,14.90
2023-03-29T20:22:27.690Z,14.90
2023-03-29T20:24:55.219Z,14.80
2023-03-29T20:27:22.830Z,15.00
2023-03-29T20:29:50.357Z,15.00
2023-03-29T20:32:18.038Z,15.00
2023-03-29T20:34:45.504Z,15.20
2023-03-29T20:37:13.028Z,15.10
2023-03-29T20:39:40.548Z,15.10
2023-03-29T20:42:08.126Z,15.00
2023-03-29T20:44:35.665Z,14.90
2023-03-29T20:47:03.222Z,14.90
2023-03-29T20:49:30.772Z,14.90
2023-03-29T20:52:01.149Z,14.80
2023-03-29T20:54:28.684Z,14.80
2023-03-29T20:56:56.310Z,14.80
2023-03-29T20:59:23.852Z,14.80
2023-03-29T21:01:51.438Z,14.80
2023-03-29T21:04:19.089Z,14.80
2023-03-29T21:06:46.568Z,15.00
2023-03-29T21:09:14.111Z,15.00
2023-03-29T21:11:41.676Z,14.90
2023-03-29T21:14:09.230Z,14.90
2023-03-29T21:16:36.756Z,14.80
2023-03-29T21:19:04.360Z,14.80
2023-03-29T21:21:31.903Z,14.80
2023-03-29T21:23:59.437Z,14.80
2023-03-29T21:26:27.083Z,14.80
2023-03-29T21:28:54.555Z,15.00
2023-03-29T21:31:22.158Z,15.00
2023-03-29T21:33:49.704Z,15.00
2023-03-29T21:36:17.287Z,15.00
2023-03-29T21:38:44.777Z,15.00
2023-03-29T21:41:12.346Z,15.00
2023-03-29T21:43:39.893Z,15.20
2023-03-29T21:46:07.479Z,15.20
2023-03-29T21:48:35.059Z,15.20
2023-03-29T21:51:02.750Z,15.20
2023-03-29T21:53:30.143Z,15.20
2023-03-29T21:55:57.853Z,15.20
2023-03-29T21:58:25.317Z,15.40
2023-03-29T22:00:52.920Z,15.40
2023-03-29T22:03:20.485Z,15.40
2023-03-29T22:06:02.515Z,15.40
2023-03-29T22:08:30.048Z,15.30
2023-03-29T22:10:57.584Z,15.40
2023-03-29T22:13:25.129Z,15.40
2023-03-29T22:15:55.788Z,15.60
2023-03-29T22:18:23.273Z,15.60
2023-03-29T22:20:50.806Z,15.60
2023-03-29T22:23:18.343Z,15.60
2023-03-29T22:25:45.949Z,15.80
2023-03-29T22:28:13.480Z,15.80
2023-03-29T22:30:41.017Z,15.80
2023-03-29T22:33:08.620Z,15.80
2023-03-29T22:35:36.168Z,15.80
2023-03-29T22:38:03.646Z,15.70
2023-03-29T22:40:31.243Z,15.70
2023-03-29T22:42:58.784Z,15.70
2023-03-29T22:45:26.331Z,15.60
2023-03-29T22:47:53.994Z,15.60
2023-03-29T22:50:21.470Z,15.60
2023-03-29T22:52:49.011Z,15.50
2023-03-29T22:55:16.655Z,15.50
2023-03-29T22:57:44.199Z,15.50
2023-03-29T23:00:11.802Z,15.50
2023-03-29T23:02:39.426Z,15.50
2023-03-29T23:05:07.028Z,15.40
2023-03-29T23:07:34.553Z,15.40
2023-03-29T23:10:02.234Z,15.40
2023-03-29T23:12:29.782Z,15.40
2023-03-29T23:14:57.329Z,15.60
2023-03-29T23:17:24.956Z,15.60
2023-03-29T23:19:52.552Z,15.50
2023-03-29T23:22:20.046Z,15.40
2023-03-29T23:24:47.582Z,15.50
2023-03-29T23:27:15.155Z,15.50
2023-03-29T23:29:42.700Z,15.40
2023-03-29T23:32:10.262Z,15.40
2023-03-29T23:34:37.844Z,15.30
2023-03-29T23:37:05.384Z,15.30
2023-03-29T23:39:32.929Z,15.50
2023-03-29T23:42:00.484Z,15.50
2023-03-29T23:44:28.027Z,15.50
2023-03-29T23:46:55.638Z,15.50
2023-03-29T23:49:23.174Z,15.50
2023-03-29T23:51:50.725Z,15.70
2023-03-29T23:54:18.244Z,15.70
2023-03-29T23:56:45.864Z,15.70
2023-03-29T23:59:13.343Z,15.60
